sensor_id;sensor_type;location;lat;lon;timestamp;temperature;humidity
8666;DHT22;4370;48.916;8.380;2022-09-01T00:02:00;15.70;99.90
8666;DHT22;4370;48.916;8.380;2022-09-01T00:04:35;15.50;99.90
8666;DHT22;4370;48.916;8.380;2022-09-01T00:07:04;15.50;99.90
8666;DHT22;4370;48.916;8.380;2022-09-01T00:09:30;15.60;99.90
8666;DHT22;4370;48.916;8.380;2022-09-01T00:11:56;15.40;99.90
8666;DHT22;4370;48.916;8.380;2022-09-01T00:14:27;15.50;99.90
8666;DHT22;4370;48.916;8.380;2022-09-01T00:16:53;15.40;99.90
8666;DHT22;4370;48.916;8.380;2022-09-01T00:19:19;15.60;99.90
8666;DHT22;4370;48.916;8.380;2022-09-01T00:21:45;15.20;99.90
8666;DHT22;4370;48.916;8.380;2022-09-01T00:24:13;15.60;99.90
8666;DHT22;4370;48.916;8.380;2022-09-01T00:31:32;15.20;99.90
8666;DHT22;4370;48.916;8.380;2022-09-01T00:38:50;15.30;99.90
8666;DHT22;4370;48.916;8.380;2022-09-01T00:41:20;15.30;99.90
8666;DHT22;4370;48.916;8.380;2022-09-01T00:43:55;14.90;99.90
8666;DHT22;4370;48.916;8.380;2022-09-01T00:46:24;15.20;99.90
8666;DHT22;4370;48.916;8.380;2022-09-01T00:48:55;15.00;99.90
8666;DHT22;4370;48.916;8.380;2022-09-01T00:51:21;15.00;99.90
8666;DHT22;4370;48.916;8.380;2022-09-01T00:56:14;15.00;99.90
8666;DHT22;4370;48.916;8.380;2022-09-01T00:58:41;14.90;99.90
8666;DHT22;4370;48.916;8.380;2022-09-01T01:01:08;14.90;99.90
8666;DHT22;4370;48.916;8.380;2022-09-01T01:03:35;15.10;99.90
8666;DHT22;4370;48.916;8.380;2022-09-01T01:06:04;14.70;99.90
8666;DHT22;4370;48.916;8.380;2022-09-01T01:08:35;14.90;99.90
8666;DHT22;4370;48.916;8.380;2022-09-01T01:11:22;14.90;99.90
8666;DHT22;4370;48.916;8.380;2022-09-01T01:16:27;14.90;99.90
8666;DHT22;4370;48.916;8.380;2022-09-01T01:21:22;14.60;99.90
8666;DHT22;4370;48.916;8.380;2022-09-01T01:26:52;14.90;99.90
8666;DHT22;4370;48.916;8.380;2022-09-01T01:39:19;14.70;99.90
8666;DHT22;4370;48.916;8.380;2022-09-01T01:44:19;14.60;99.90
8666;DHT22;4370;48.916;8.380;2022-09-01T01:46:49;14.00;99.90
8666;DHT22;4370;48.916;8.380;2022-09-01T01:49:17;14.50;99.90
8666;DHT22;4370;48.916;8.380;2022-09-01T01:54:13;14.00;99.90
8666;DHT22;4370;48.916;8.380;2022-09-01T01:59:07;14.60;99.90
8666;DHT22;4370;48.916;8.380;2022-09-01T02:04:07;14.70;99.90
8666;DHT22;4370;48.916;8.380;2022-09-01T02:06:35;14.30;99.90
8666;DHT22;4370;48.916;8.380;2022-09-01T02:09:01;14.70;99.90
8666;DHT22;4370;48.916;8.380;2022-09-01T02:11:29;14.50;99.90
8666;DHT22;4370;48.916;8.380;2022-09-01T02:13:58;14.40;99.90
8666;DHT22;4370;48.916;8.380;2022-09-01T02:16:26;14.40;99.90
8666;DHT22;4370;48.916;8.380;2022-09-01T02:21:20;14.20;99.90
8666;DHT22;4370;48.916;8.380;2022-09-01T02:23:48;14.20;99.90
8666;DHT22;4370;48.916;8.380;2022-09-01T02:28:45;14.00;99.90
8666;DHT22;4370;48.916;8.380;2022-09-01T02:33:41;14.80;99.90
8666;DHT22;4370;48.916;8.380;2022-09-01T02:36:13;13.90;99.90
8666;DHT22;4370;48.916;8.380;2022-09-01T02:41:13;13.90;99.90
8666;DHT22;4370;48.916;8.380;2022-09-01T02:43:39;13.80;99.90
8666;DHT22;4370;48.916;8.380;2022-09-01T02:48:35;13.80;99.90
8666;DHT22;4370;48.916;8.380;2022-09-01T02:51:07;13.80;99.90
8666;DHT22;4370;48.916;8.380;2022-09-01T02:53:33;13.70;99.90
8666;DHT22;4370;48.916;8.380;2022-09-01T02:56:01;13.80;99.90
8666;DHT22;4370;48.916;8.380;2022-09-01T02:58:29;13.60;99.90
8666;DHT22;4370;48.916;8.380;2022-09-01T03:00:58;13.30;99.90
8666;DHT22;4370;48.916;8.380;2022-09-01T03:03:25;13.90;99.90
8666;DHT22;4370;48.916;8.380;2022-09-01T03:05:52;13.70;99.90
8666;DHT22;4370;48.916;8.380;2022-09-01T03:08:21;13.70;99.90
8666;DHT22;4370;48.916;8.380;2022-09-01T03:13:16;13.70;99.90
8666;DHT22;4370;48.916;8.380;2022-09-01T03:15:43;13.20;99.90
8666;DHT22;4370;48.916;8.380;2022-09-01T03:18:11;13.70;99.90
8666;DHT22;4370;48.916;8.380;2022-09-01T03:20:40;13.70;99.90
8666;DHT22;4370;48.916;8.380;2022-09-01T03:23:09;13.50;99.90
8666;DHT22;4370;48.916;8.380;2022-09-01T03:25:37;13.70;99.90
8666;DHT22;4370;48.916;8.380;2022-09-01T03:28:05;14.10;99.90
8666;DHT22;4370;48.916;8.380;2022-09-01T03:30:33;14.00;99.90
8666;DHT22;4370;48.916;8.380;2022-09-01T03:33:01;13.70;99.90
8666;DHT22;4370;48.916;8.380;2022-09-01T03:35:28;13.60;99.90
8666;DHT22;4370;48.916;8.380;2022-09-01T03:40:24;13.30;99.90
8666;DHT22;4370;48.916;8.380;2022-09-01T03:45:18;14.00;99.90
8666;DHT22;4370;48.916;8.380;2022-09-01T03:47:45;13.60;99.90
8666;DHT22;4370;48.916;8.380;2022-09-01T03:50:16;13.80;99.90
8666;DHT22;4370;48.916;8.380;2022-09-01T03:52:54;13.30;99.90
8666;DHT22;4370;48.916;8.380;2022-09-01T03:55:28;13.40;99.90
8666;DHT22;4370;48.916;8.380;2022-09-01T03:58:00;13.40;99.90
8666;DHT22;4370;48.916;8.380;2022-09-01T04:00:28;13.00;99.90
8666;DHT22;4370;48.916;8.380;2022-09-01T04:02:56;13.20;99.90
8666;DHT22;4370;48.916;8.380;2022-09-01T04:05:24;13.20;99.90
8666;DHT22;4370;48.916;8.380;2022-09-01T04:07:57;13.10;99.90
8666;DHT22;4370;48.916;8.380;2022-09-01T04:15:26;13.00;99.90
8666;DHT22;4370;48.916;8.380;2022-09-01T04:17:52;13.00;99.90
8666;DHT22;4370;48.916;8.380;2022-09-01T04:20:40;12.60;99.90
8666;DHT22;4370;48.916;8.380;2022-09-01T04:23:32;12.90;99.90
8666;DHT22;4370;48.916;8.380;2022-09-01T04:28:34;12.90;99.90
8666;DHT22;4370;48.916;8.380;2022-09-01T04:31:04;12.70;99.90
8666;DHT22;4370;48.916;8.380;2022-09-01T04:33:34;13.00;99.90
8666;DHT22;4370;48.916;8.380;2022-09-01T04:36:15;13.00;99.90
8666;DHT22;4370;48.916;8.380;2022-09-01T04:38:44;13.10;99.90
8666;DHT22;4370;48.916;8.380;2022-09-01T04:41:09;12.50;99.90
8666;DHT22;4370;48.916;8.380;2022-09-01T04:48:33;13.10;99.90
8666;DHT22;4370;48.916;8.380;2022-09-01T04:55:52;13.00;99.90
8666;DHT22;4370;48.916;8.380;2022-09-01T04:58:20;12.80;99.90
8666;DHT22;4370;48.916;8.380;2022-09-01T05:00:47;12.80;99.90
8666;DHT22;4370;48.916;8.380;2022-09-01T05:08:17;13.10;99.90
8666;DHT22;4370;48.916;8.380;2022-09-01T05:10:46;12.90;99.90
8666;DHT22;4370;48.916;8.380;2022-09-01T05:13:15;13.00;99.90
8666;DHT22;4370;48.916;8.380;2022-09-01T05:15:43;13.00;99.90
8666;DHT22;4370;48.916;8.380;2022-09-01T05:18:16;13.30;99.90
8666;DHT22;4370;48.916;8.380;2022-09-01T05:20:49;13.20;99.90
8666;DHT22;4370;48.916;8.380;2022-09-01T05:23:15;13.20;99.90
8666;DHT22;4370;48.916;8.380;2022-09-01T05:25:49;13.10;99.90
8666;DHT22;4370;48.916;8.380;2022-09-01T05:28:18;13.00;99.90
8666;DHT22;4370;48.916;8.380;2022-09-01T05:30:45;13.40;99.90
8666;DHT22;4370;48.916;8.380;2022-09-01T05:33:12;13.30;99.90
8666;DHT22;4370;48.916;8.380;2022-09-01T05:35:55;13.60;99.90
8666;DHT22;4370;48.916;8.380;2022-09-01T05:38:22;13.60;99.90
8666;DHT22;4370;48.916;8.380;2022-09-01T05:41:01;12.70;99.90
8666;DHT22;4370;48.916;8.380;2022-09-01T05:43:29;13.40;99.90
8666;DHT22;4370;48.916;8.380;2022-09-01T05:45:56;13.50;99.90
8666;DHT22;4370;48.916;8.380;2022-09-01T05:50:51;13.70;99.90
8666;DHT22;4370;48.916;8.380;2022-09-01T05:58:19;14.10;99.90
8666;DHT22;4370;48.916;8.380;2022-09-01T06:00:45;14.60;99.90
8666;DHT22;4370;48.916;8.380;2022-09-01T06:03:14;14.30;99.90
8666;DHT22;4370;48.916;8.380;2022-09-01T06:10:40;14.70;99.90
8666;DHT22;4370;48.916;8.380;2022-09-01T06:13:09;14.90;99.90
8666;DHT22;4370;48.916;8.380;2022-09-01T06:15:36;15.00;99.90
8666;DHT22;4370;48.916;8.380;2022-09-01T06:18:06;14.90;99.90
8666;DHT22;4370;48.916;8.380;2022-09-01T06:20:38;15.10;99.90
8666;DHT22;4370;48.916;8.380;2022-09-01T06:23:05;15.90;99.90
8666;DHT22;4370;48.916;8.380;2022-09-01T06:25:31;16.20;99.90
8666;DHT22;4370;48.916;8.380;2022-09-01T06:32:52;16.50;99.90
8666;DHT22;4370;48.916;8.380;2022-09-01T06:35:19;16.70;99.90
8666;DHT22;4370;48.916;8.380;2022-09-01T06:40:14;16.70;99.90
8666;DHT22;4370;48.916;8.380;2022-09-01T06:42:44;16.80;99.90
8666;DHT22;4370;48.916;8.380;2022-09-01T06:45:13;17.10;99.90
8666;DHT22;4370;48.916;8.380;2022-09-01T06:50:07;17.20;99.90
8666;DHT22;4370;48.916;8.380;2022-09-01T06:52:32;17.90;99.90
8666;DHT22;4370;48.916;8.380;2022-09-01T06:59:53;21.30;98.20
8666;DHT22;4370;48.916;8.380;2022-09-01T07:04:48;22.80;94.20
8666;DHT22;4370;48.916;8.380;2022-09-01T07:07:14;24.50;88.20
8666;DHT22;4370;48.916;8.380;2022-09-01T07:12:06;26.80;71.10
8666;DHT22;4370;48.916;8.380;2022-09-01T07:14:32;27.70;65.70
8666;DHT22;4370;48.916;8.380;2022-09-01T07:16:57;28.20;62.80
8666;DHT22;4370;48.916;8.380;2022-09-01T07:19:24;28.80;59.70
8666;DHT22;4370;48.916;8.380;2022-09-01T07:21:50;29.70;76.00
8666;DHT22;4370;48.916;8.380;2022-09-01T07:26:43;30.30;52.70
8666;DHT22;4370;48.916;8.380;2022-09-01T07:29:13;30.70;52.00
8666;DHT22;4370;48.916;8.380;2022-09-01T07:31:42;31.00;50.50
8666;DHT22;4370;48.916;8.380;2022-09-01T07:34:10;31.00;49.80
8666;DHT22;4370;48.916;8.380;2022-09-01T07:36:42;31.50;48.40
8666;DHT22;4370;48.916;8.380;2022-09-01T07:39:09;31.50;48.90
8666;DHT22;4370;48.916;8.380;2022-09-01T07:41:34;31.50;47.20
8666;DHT22;4370;48.916;8.380;2022-09-01T07:44:01;31.70;46.80
8666;DHT22;4370;48.916;8.380;2022-09-01T07:46:29;31.60;46.80
8666;DHT22;4370;48.916;8.380;2022-09-01T07:48:59;31.50;47.30
8666;DHT22;4370;48.916;8.380;2022-09-01T07:51:26;32.00;48.20
8666;DHT22;4370;48.916;8.380;2022-09-01T07:53:53;29.90;48.90
8666;DHT22;4370;48.916;8.380;2022-09-01T07:56:21;28.90;51.90
8666;DHT22;4370;48.916;8.380;2022-09-01T07:58:48;27.30;54.70
8666;DHT22;4370;48.916;8.380;2022-09-01T08:01:17;26.20;56.70
8666;DHT22;4370;48.916;8.380;2022-09-01T08:03:45;25.60;60.30
8666;DHT22;4370;48.916;8.380;2022-09-01T08:06:13;25.50;62.20
8666;DHT22;4370;48.916;8.380;2022-09-01T08:08:44;23.10;64.00
8666;DHT22;4370;48.916;8.380;2022-09-01T08:11:15;23.00;67.90
8666;DHT22;4370;48.916;8.380;2022-09-01T08:13:41;23.70;71.60
8666;DHT22;4370;48.916;8.380;2022-09-01T08:16:07;22.20;72.60
8666;DHT22;4370;48.916;8.380;2022-09-01T08:23:25;21.90;79.70
8666;DHT22;4370;48.916;8.380;2022-09-01T08:25:52;21.20;80.20
8666;DHT22;4370;48.916;8.380;2022-09-01T08:33:11;21.70;85.00
8666;DHT22;4370;48.916;8.380;2022-09-01T08:35:42;21.10;84.40
8666;DHT22;4370;48.916;8.380;2022-09-01T08:38:09;22.20;86.70
8666;DHT22;4370;48.916;8.380;2022-09-01T08:40:35;21.10;86.70
8666;DHT22;4370;48.916;8.380;2022-09-01T08:46:23;21.50;84.50
8666;DHT22;4370;48.916;8.380;2022-09-01T08:48:58;21.30;86.90
8666;DHT22;4370;48.916;8.380;2022-09-01T08:51:36;21.50;89.10
8666;DHT22;4370;48.916;8.380;2022-09-01T08:56:37;21.50;88.90
8666;DHT22;4370;48.916;8.380;2022-09-01T08:59:05;21.00;88.80
8666;DHT22;4370;48.916;8.380;2022-09-01T09:01:45;23.10;88.50
8666;DHT22;4370;48.916;8.380;2022-09-01T09:04:34;22.50;87.80
8666;DHT22;4370;48.916;8.380;2022-09-01T09:07:11;21.70;86.50
8666;DHT22;4370;48.916;8.380;2022-09-01T09:09:44;21.60;85.20
8666;DHT22;4370;48.916;8.380;2022-09-01T09:12:25;21.50;86.10
8666;DHT22;4370;48.916;8.380;2022-09-01T09:15:13;22.20;85.90
8666;DHT22;4370;48.916;8.380;2022-09-01T09:17:46;22.40;83.90
8666;DHT22;4370;48.916;8.380;2022-09-01T09:20:14;22.80;80.50
8666;DHT22;4370;48.916;8.380;2022-09-01T09:22:42;22.20;78.60
8666;DHT22;4370;48.916;8.380;2022-09-01T09:25:12;22.40;78.80
8666;DHT22;4370;48.916;8.380;2022-09-01T09:27:43;22.60;76.70
8666;DHT22;4370;48.916;8.380;2022-09-01T09:30:25;22.60;77.20
8666;DHT22;4370;48.916;8.380;2022-09-01T09:35:37;22.70;76.50
8666;DHT22;4370;48.916;8.380;2022-09-01T09:41:07;23.50;76.10
8666;DHT22;4370;48.916;8.380;2022-09-01T09:43:37;22.80;74.70
8666;DHT22;4370;48.916;8.380;2022-09-01T09:46:40;23.40;75.30
8666;DHT22;4370;48.916;8.380;2022-09-01T09:51:54;23.20;91.70
8666;DHT22;4370;48.916;8.380;2022-09-01T09:59:43;23.50;69.70
8666;DHT22;4370;48.916;8.380;2022-09-01T10:02:26;24.10;69.90
8666;DHT22;4370;48.916;8.380;2022-09-01T10:04:57;23.70;88.00
8666;DHT22;4370;48.916;8.380;2022-09-01T10:07:36;23.90;66.40
8666;DHT22;4370;48.916;8.380;2022-09-01T10:12:53;23.60;66.60
8666;DHT22;4370;48.916;8.380;2022-09-01T10:15:22;23.40;66.70
8666;DHT22;4370;48.916;8.380;2022-09-01T10:17:50;23.20;67.60
8666;DHT22;4370;48.916;8.380;2022-09-01T10:20:22;22.70;67.40
8666;DHT22;4370;48.916;8.380;2022-09-01T10:22:50;21.30;65.70
8666;DHT22;4370;48.916;8.380;2022-09-01T10:25:19;22.90;68.20
8666;DHT22;4370;48.916;8.380;2022-09-01T10:27:54;23.00;69.00
8666;DHT22;4370;48.916;8.380;2022-09-01T10:30:23;24.60;70.60
8666;DHT22;4370;48.916;8.380;2022-09-01T10:37:48;23.20;67.40
8666;DHT22;4370;48.916;8.380;2022-09-01T10:40:39;23.70;67.30
8666;DHT22;4370;48.916;8.380;2022-09-01T10:43:40;23.00;65.70
8666;DHT22;4370;48.916;8.380;2022-09-01T10:48:48;22.50;65.00
8666;DHT22;4370;48.916;8.380;2022-09-01T10:53:44;23.10;65.80
8666;DHT22;4370;48.916;8.380;2022-09-01T11:04:19;23.90;64.80
8666;DHT22;4370;48.916;8.380;2022-09-01T11:09:38;24.30;62.00
8666;DHT22;4370;48.916;8.380;2022-09-01T11:17:31;24.20;61.30
8666;DHT22;4370;48.916;8.380;2022-09-01T11:30:46;24.70;60.80
8666;DHT22;4370;48.916;8.380;2022-09-01T11:36:43;24.40;60.00
8666;DHT22;4370;48.916;8.380;2022-09-01T11:47:54;23.80;63.40
8666;DHT22;4370;48.916;8.380;2022-09-01T11:50:26;25.50;66.10
8666;DHT22;4370;48.916;8.380;2022-09-01T11:53:03;23.80;64.40
8666;DHT22;4370;48.916;8.380;2022-09-01T11:55:37;23.70;63.00
8666;DHT22;4370;48.916;8.380;2022-09-01T11:58:05;23.90;62.80
8666;DHT22;4370;48.916;8.380;2022-09-01T12:00:34;24.10;62.30
8666;DHT22;4370;48.916;8.380;2022-09-01T12:03:09;23.20;59.80
8666;DHT22;4370;48.916;8.380;2022-09-01T12:05:44;23.90;59.00
8666;DHT22;4370;48.916;8.380;2022-09-01T12:08:12;24.10;59.70
8666;DHT22;4370;48.916;8.380;2022-09-01T12:10:39;24.00;60.00
8666;DHT22;4370;48.916;8.380;2022-09-01T12:13:17;23.50;59.40
8666;DHT22;4370;48.916;8.380;2022-09-01T12:15:43;24.50;59.70
8666;DHT22;4370;48.916;8.380;2022-09-01T12:18:22;24.10;57.80
8666;DHT22;4370;48.916;8.380;2022-09-01T12:20:50;23.50;57.70
8666;DHT22;4370;48.916;8.380;2022-09-01T12:23:35;24.60;57.30
8666;DHT22;4370;48.916;8.380;2022-09-01T12:26:15;24.20;56.80
8666;DHT22;4370;48.916;8.380;2022-09-01T12:28:51;25.10;57.60
8666;DHT22;4370;48.916;8.380;2022-09-01T12:31:20;25.40;58.30
8666;DHT22;4370;48.916;8.380;2022-09-01T12:33:47;25.40;58.30
8666;DHT22;4370;48.916;8.380;2022-09-01T12:36:30;24.70;57.70
8666;DHT22;4370;48.916;8.380;2022-09-01T12:41:43;25.00;58.80
8666;DHT22;4370;48.916;8.380;2022-09-01T12:47:06;24.80;56.10
8666;DHT22;4370;48.916;8.380;2022-09-01T12:49:36;24.30;56.50
8666;DHT22;4370;48.916;8.380;2022-09-01T12:54:35;24.10;55.00
8666;DHT22;4370;48.916;8.380;2022-09-01T12:57:01;24.80;56.90
8666;DHT22;4370;48.916;8.380;2022-09-01T12:59:26;25.00;57.30
8666;DHT22;4370;48.916;8.380;2022-09-01T13:01:52;23.80;79.40
8666;DHT22;4370;48.916;8.380;2022-09-01T13:06:43;23.60;57.20
8666;DHT22;4370;48.916;8.380;2022-09-01T13:11:35;23.40;57.00
8666;DHT22;4370;48.916;8.380;2022-09-01T13:14:00;23.20;59.80
8666;DHT22;4370;48.916;8.380;2022-09-01T13:16:26;22.90;58.70
8666;DHT22;4370;48.916;8.380;2022-09-01T13:18:51;23.00;59.40
8666;DHT22;4370;48.916;8.380;2022-09-01T13:21:17;24.40;60.80
8666;DHT22;4370;48.916;8.380;2022-09-01T13:23:42;23.40;58.40
8666;DHT22;4370;48.916;8.380;2022-09-01T13:26:08;23.40;57.50
8666;DHT22;4370;48.916;8.380;2022-09-01T13:28:35;23.30;56.10
8666;DHT22;4370;48.916;8.380;2022-09-01T13:31:03;23.90;57.50
8666;DHT22;4370;48.916;8.380;2022-09-01T13:33:30;23.40;57.60
8666;DHT22;4370;48.916;8.380;2022-09-01T13:35:56;23.30;57.70
8666;DHT22;4370;48.916;8.380;2022-09-01T13:38:22;23.50;57.20
8666;DHT22;4370;48.916;8.380;2022-09-01T13:40:48;23.90;57.70
8666;DHT22;4370;48.916;8.380;2022-09-01T13:43:17;23.40;57.90
8666;DHT22;4370;48.916;8.380;2022-09-01T13:45:43;23.30;57.60
8666;DHT22;4370;48.916;8.380;2022-09-01T13:48:09;23.70;57.80
8666;DHT22;4370;48.916;8.380;2022-09-01T13:50:36;23.80;57.40
8666;DHT22;4370;48.916;8.380;2022-09-01T13:55:31;23.80;56.90
8666;DHT22;4370;48.916;8.380;2022-09-01T13:57:57;23.50;57.20
8666;DHT22;4370;48.916;8.380;2022-09-01T14:00:35;24.20;56.70
8666;DHT22;4370;48.916;8.380;2022-09-01T14:03:07;24.20;57.20
8666;DHT22;4370;48.916;8.380;2022-09-01T14:05:36;24.60;57.50
8666;DHT22;4370;48.916;8.380;2022-09-01T14:08:02;25.80;57.90
8666;DHT22;4370;48.916;8.380;2022-09-01T14:10:29;24.20;56.60
8666;DHT22;4370;48.916;8.380;2022-09-01T14:12:59;24.80;56.90
8666;DHT22;4370;48.916;8.380;2022-09-01T14:15:25;24.40;56.70
8666;DHT22;4370;48.916;8.380;2022-09-01T14:17:53;24.00;56.20
8666;DHT22;4370;48.916;8.380;2022-09-01T14:20:27;23.60;56.30
8666;DHT22;4370;48.916;8.380;2022-09-01T14:22:53;24.10;57.00
8666;DHT22;4370;48.916;8.380;2022-09-01T14:25:20;23.90;57.10
8666;DHT22;4370;48.916;8.380;2022-09-01T14:30:19;24.10;56.90
8666;DHT22;4370;48.916;8.380;2022-09-01T14:35:12;24.20;57.50
8666;DHT22;4370;48.916;8.380;2022-09-01T14:37:38;24.10;58.00
8666;DHT22;4370;48.916;8.380;2022-09-01T14:40:05;24.90;58.30
8666;DHT22;4370;48.916;8.380;2022-09-01T14:42:32;24.20;57.10
8666;DHT22;4370;48.916;8.380;2022-09-01T14:44:57;23.80;56.60
8666;DHT22;4370;48.916;8.380;2022-09-01T14:47:23;24.50;55.20
8666;DHT22;4370;48.916;8.380;2022-09-01T14:49:51;24.30;54.90
8666;DHT22;4370;48.916;8.380;2022-09-01T14:52:18;24.10;54.90
8666;DHT22;4370;48.916;8.380;2022-09-01T14:54:43;23.70;54.50
8666;DHT22;4370;48.916;8.380;2022-09-01T14:57:09;24.40;53.40
8666;DHT22;4370;48.916;8.380;2022-09-01T14:59:35;24.00;53.60
8666;DHT22;4370;48.916;8.380;2022-09-01T15:02:02;24.50;75.00
8666;DHT22;4370;48.916;8.380;2022-09-01T15:04:28;23.90;52.80
8666;DHT22;4370;48.916;8.380;2022-09-01T15:06:54;24.20;52.90
8666;DHT22;4370;48.916;8.380;2022-09-01T15:11:46;24.50;75.40
8666;DHT22;4370;48.916;8.380;2022-09-01T15:14:11;25.30;54.50
8666;DHT22;4370;48.916;8.380;2022-09-01T15:16:37;24.90;54.50
8666;DHT22;4370;48.916;8.380;2022-09-01T15:19:07;25.10;54.70
8666;DHT22;4370;48.916;8.380;2022-09-01T15:21:34;24.70;53.90
8666;DHT22;4370;48.916;8.380;2022-09-01T15:24:02;24.50;54.30
8666;DHT22;4370;48.916;8.380;2022-09-01T15:26:28;24.70;55.00
8666;DHT22;4370;48.916;8.380;2022-09-01T15:28:54;25.50;54.90
8666;DHT22;4370;48.916;8.380;2022-09-01T15:31:21;24.10;53.50
8666;DHT22;4370;48.916;8.380;2022-09-01T15:33:49;24.20;53.00
8666;DHT22;4370;48.916;8.380;2022-09-01T15:36:20;24.00;53.90
8666;DHT22;4370;48.916;8.380;2022-09-01T15:38:47;24.00;54.00
8666;DHT22;4370;48.916;8.380;2022-09-01T15:41:30;25.30;54.70
8666;DHT22;4370;48.916;8.380;2022-09-01T15:43:56;24.30;54.60
8666;DHT22;4370;48.916;8.380;2022-09-01T15:46:23;23.90;53.80
8666;DHT22;4370;48.916;8.380;2022-09-01T15:48:56;24.60;54.70
8666;DHT22;4370;48.916;8.380;2022-09-01T15:53:52;24.20;55.60
8666;DHT22;4370;48.916;8.380;2022-09-01T15:56:18;24.60;56.10
8666;DHT22;4370;48.916;8.380;2022-09-01T15:58:45;24.00;55.20
8666;DHT22;4370;48.916;8.380;2022-09-01T16:01:10;23.90;54.10
8666;DHT22;4370;48.916;8.380;2022-09-01T16:06:02;24.20;79.80
8666;DHT22;4370;48.916;8.380;2022-09-01T16:08:28;24.10;55.10
8666;DHT22;4370;48.916;8.380;2022-09-01T16:10:54;23.50;55.20
8666;DHT22;4370;48.916;8.380;2022-09-01T16:13:20;23.50;54.30
8666;DHT22;4370;48.916;8.380;2022-09-01T16:16:04;24.60;55.30
8666;DHT22;4370;48.916;8.380;2022-09-01T16:18:38;23.80;55.40
8666;DHT22;4370;48.916;8.380;2022-09-01T16:24:06;23.80;54.60
8666;DHT22;4370;48.916;8.380;2022-09-01T16:26:34;23.80;55.20
8666;DHT22;4370;48.916;8.380;2022-09-01T16:29:02;23.70;55.20
8666;DHT22;4370;48.916;8.380;2022-09-01T16:31:32;24.40;55.90
8666;DHT22;4370;48.916;8.380;2022-09-01T16:34:00;23.10;54.80
8666;DHT22;4370;48.916;8.380;2022-09-01T16:47:29;23.50;55.40
8666;DHT22;4370;48.916;8.380;2022-09-01T16:50:19;24.10;55.90
8666;DHT22;4370;48.916;8.380;2022-09-01T16:55:37;23.50;56.30
8666;DHT22;4370;48.916;8.380;2022-09-01T17:01:21;22.80;56.10
8666;DHT22;4370;48.916;8.380;2022-09-01T17:06:31;23.20;56.80
8666;DHT22;4370;48.916;8.380;2022-09-01T17:09:09;23.10;57.00
8666;DHT22;4370;48.916;8.380;2022-09-01T17:11:44;24.00;58.30
8666;DHT22;4370;48.916;8.380;2022-09-01T17:14:21;22.60;57.80
8666;DHT22;4370;48.916;8.380;2022-09-01T17:17:01;23.30;59.00
8666;DHT22;4370;48.916;8.380;2022-09-01T17:19:29;22.20;57.50
8666;DHT22;4370;48.916;8.380;2022-09-01T17:22:09;22.60;57.00
8666;DHT22;4370;48.916;8.380;2022-09-01T17:24:39;22.50;80.20
8666;DHT22;4370;48.916;8.380;2022-09-01T17:29:52;22.40;57.60
8666;DHT22;4370;48.916;8.380;2022-09-01T17:40:28;21.70;58.60
8666;DHT22;4370;48.916;8.380;2022-09-01T17:43:06;21.80;59.40
8666;DHT22;4370;48.916;8.380;2022-09-01T17:46:23;21.50;60.00
8666;DHT22;4370;48.916;8.380;2022-09-01T17:48:39;21.50;60.60
8666;DHT22;4370;48.916;8.380;2022-09-01T17:51:38;21.40;61.00
8666;DHT22;4370;48.916;8.380;2022-09-01T17:54:19;21.20;61.60
8666;DHT22;4370;48.916;8.380;2022-09-01T17:57:15;20.60;61.80
8666;DHT22;4370;48.916;8.380;2022-09-01T18:05:04;20.50;81.20
8666;DHT22;4370;48.916;8.380;2022-09-01T18:10:40;19.70;82.10
8666;DHT22;4370;48.916;8.380;2022-09-01T18:20:47;19.20;72.00
8666;DHT22;4370;48.916;8.380;2022-09-01T18:23:18;19.00;73.00
8666;DHT22;4370;48.916;8.380;2022-09-01T18:26:10;18.40;88.40
8666;DHT22;4370;48.916;8.380;2022-09-01T18:36:31;18.40;92.40
8666;DHT22;4370;48.916;8.380;2022-09-01T18:39:26;18.30;91.30
8666;DHT22;4370;48.916;8.380;2022-09-01T18:47:10;17.80;87.00
8666;DHT22;4370;48.916;8.380;2022-09-01T18:57:39;17.40;97.60
8666;DHT22;4370;48.916;8.380;2022-09-01T19:03:08;16.90;98.60
8666;DHT22;4370;48.916;8.380;2022-09-01T19:08:44;17.10;93.60
8666;DHT22;4370;48.916;8.380;2022-09-01T19:13:56;16.80;99.90
8666;DHT22;4370;48.916;8.380;2022-09-01T19:16:42;16.80;95.20
8666;DHT22;4370;48.916;8.380;2022-09-01T19:24:11;16.80;95.40
8666;DHT22;4370;48.916;8.380;2022-09-01T19:26:48;16.90;95.30
8666;DHT22;4370;48.916;8.380;2022-09-01T19:29:18;16.90;95.50
8666;DHT22;4370;48.916;8.380;2022-09-01T19:31:48;16.90;95.60
8666;DHT22;4370;48.916;8.380;2022-09-01T19:34:23;17.00;98.20
8666;DHT22;4370;48.916;8.380;2022-09-01T19:36:53;16.90;99.90
8666;DHT22;4370;48.916;8.380;2022-09-01T19:39:28;16.70;99.90
8666;DHT22;4370;48.916;8.380;2022-09-01T19:45:21;17.10;96.40
8666;DHT22;4370;48.916;8.380;2022-09-01T19:48:09;17.10;97.90
8666;DHT22;4370;48.916;8.380;2022-09-01T19:50:49;17.60;99.90
8666;DHT22;4370;48.916;8.380;2022-09-01T19:53:32;17.60;93.30
8666;DHT22;4370;48.916;8.380;2022-09-01T19:56:06;17.90;98.40
8666;DHT22;4370;48.916;8.380;2022-09-01T19:58:49;17.90;91.60
8666;DHT22;4370;48.916;8.380;2022-09-01T20:01:25;17.90;91.30
8666;DHT22;4370;48.916;8.380;2022-09-01T20:03:59;17.90;97.00
8666;DHT22;4370;48.916;8.380;2022-09-01T20:06:41;18.10;90.70
8666;DHT22;4370;48.916;8.380;2022-09-01T20:09:22;18.10;90.50
8666;DHT22;4370;48.916;8.380;2022-09-01T20:11:56;18.20;90.30
8666;DHT22;4370;48.916;8.380;2022-09-01T20:16:51;18.20;90.10
8666;DHT22;4370;48.916;8.380;2022-09-01T20:19:33;18.20;90.00
8666;DHT22;4370;48.916;8.380;2022-09-01T20:22:22;18.20;89.80
8666;DHT22;4370;48.916;8.380;2022-09-01T20:24:49;18.40;96.10
8666;DHT22;4370;48.916;8.380;2022-09-01T20:27:51;17.90;93.60
8666;DHT22;4370;48.916;8.380;2022-09-01T20:30:28;18.30;90.00
8666;DHT22;4370;48.916;8.380;2022-09-01T20:33:03;18.10;91.10
8666;DHT22;4370;48.916;8.380;2022-09-01T20:35:51;17.90;89.50
8666;DHT22;4370;48.916;8.380;2022-09-01T20:38:55;17.60;89.60
8666;DHT22;4370;48.916;8.380;2022-09-01T20:46:50;17.70;90.80
8666;DHT22;4370;48.916;8.380;2022-09-01T20:51:49;17.60;91.40
8666;DHT22;4370;48.916;8.380;2022-09-01T20:54:35;17.40;91.90
8666;DHT22;4370;48.916;8.380;2022-09-01T20:57:19;17.20;92.40
8666;DHT22;4370;48.916;8.380;2022-09-01T21:02:42;16.80;94.20
8666;DHT22;4370;48.916;8.380;2022-09-01T21:05:26;16.70;94.90
8666;DHT22;4370;48.916;8.380;2022-09-01T21:11:31;16.30;96.50
8666;DHT22;4370;48.916;8.380;2022-09-01T21:22:21;15.70;98.30
8666;DHT22;4370;48.916;8.380;2022-09-01T21:27:22;15.40;99.40
8666;DHT22;4370;48.916;8.380;2022-09-01T21:29:56;15.30;99.70
8666;DHT22;4370;48.916;8.380;2022-09-01T21:32:27;15.30;99.90
8666;DHT22;4370;48.916;8.380;2022-09-01T21:39:50;14.80;99.90
8666;DHT22;4370;48.916;8.380;2022-09-01T21:42:22;15.00;99.90
8666;DHT22;4370;48.916;8.380;2022-09-01T21:44:49;14.90;99.90
8666;DHT22;4370;48.916;8.380;2022-09-01T21:52:07;15.00;99.90
8666;DHT22;4370;48.916;8.380;2022-09-01T21:59:25;14.10;99.90
8666;DHT22;4370;48.916;8.380;2022-09-01T22:06:44;14.20;99.90
8666;DHT22;4370;48.916;8.380;2022-09-01T22:09:10;14.60;99.90
8666;DHT22;4370;48.916;8.380;2022-09-01T22:11:38;14.20;99.90
8666;DHT22;4370;48.916;8.380;2022-09-01T22:16:30;13.90;99.90
8666;DHT22;4370;48.916;8.380;2022-09-01T22:18:56;14.20;99.90
8666;DHT22;4370;48.916;8.380;2022-09-01T22:26:20;13.40;99.90
8666;DHT22;4370;48.916;8.380;2022-09-01T22:31:14;13.80;99.90
8666;DHT22;4370;48.916;8.380;2022-09-01T22:36:06;13.90;99.90
8666;DHT22;4370;48.916;8.380;2022-09-01T22:43:26;13.70;99.90